sensor_id;sensor_type;location;lat;lon;timestamp;temperature;humidity
75430;DHT22;64127;51.488;5.462;2023-10-31T00:02:28;11.80;99.90
75430;DHT22;64127;51.488;5.462;2023-10-31T00:05:00;11.80;99.90
75430;DHT22;64127;51.488;5.462;2023-10-31T00:07:32;11.80;99.90
75430;DHT22;64127;51.488;5.462;2023-10-31T00:10:04;11.80;99.90
75430;DHT22;64127;51.488;5.462;2023-10-31T00:12:57;11.80;99.90
75430;DHT22;64127;51.488;5.462;2023-10-31T00:15:29;11.70;99.90
75430;DHT22;64127;51.488;5.462;2023-10-31T00:18:02;11.70;99.90
75430;DHT22;64127;51.488;5.462;2023-10-31T00:20:34;11.70;99.90
75430;DHT22;64127;51.488;5.462;2023-10-31T00:23:06;11.70;99.90
75430;DHT22;64127;51.488;5.462;2023-10-31T00:25:38;11.70;99.90
75430;DHT22;64127;51.488;5.462;2023-10-31T00:28:10;11.70;99.90
75430;DHT22;64127;51.488;5.462;2023-10-31T00:30:42;11.70;99.90
75430;DHT22;64127;51.488;5.462;2023-10-31T00:33:14;11.70;99.90
75430;DHT22;64127;51.488;5.462;2023-10-31T00:35:46;11.70;99.90
75430;DHT22;64127;51.488;5.462;2023-10-31T00:38:18;11.70;99.90
75430;DHT22;64127;51.488;5.462;2023-10-31T00:40:50;11.70;99.90
75430;DHT22;64127;51.488;5.462;2023-10-31T00:43:22;11.70;99.90
75430;DHT22;64127;51.488;5.462;2023-10-31T00:45:54;11.70;99.90
75430;DHT22;64127;51.488;5.462;2023-10-31T00:48:27;11.70;99.90
75430;DHT22;64127;51.488;5.462;2023-10-31T00:50:59;11.70;99.90
75430;DHT22;64127;51.488;5.462;2023-10-31T00:53:32;11.70;99.90
75430;DHT22;64127;51.488;5.462;2023-10-31T00:56:04;11.70;99.90
75430;DHT22;64127;51.488;5.462;2023-10-31T00:58:37;11.70;99.90
75430;DHT22;64127;51.488;5.462;2023-10-31T01:01:09;11.80;99.90
75430;DHT22;64127;51.488;5.462;2023-10-31T01:03:41;11.80;99.90
75430;DHT22;64127;51.488;5.462;2023-10-31T01:06:14;11.80;99.90
75430;DHT22;64127;51.488;5.462;2023-10-31T01:08:46;11.80;99.90
75430;DHT22;64127;51.488;5.462;2023-10-31T01:11:19;11.70;99.90
75430;DHT22;64127;51.488;5.462;2023-10-31T01:13:51;11.70;99.90
75430;DHT22;64127;51.488;5.462;2023-10-31T01:16:23;11.70;99.90
75430;DHT22;64127;51.488;5.462;2023-10-31T01:18:55;11.70;99.90
75430;DHT22;64127;51.488;5.462;2023-10-31T01:21:27;11.70;99.90
75430;DHT22;64127;51.488;5.462;2023-10-31T01:23:59;11.70;99.90
75430;DHT22;64127;51.488;5.462;2023-10-31T01:26:31;11.70;99.90
75430;DHT22;64127;51.488;5.462;2023-10-31T01:29:03;11.70;99.90
75430;DHT22;64127;51.488;5.462;2023-10-31T01:31:35;11.70;99.90
75430;DHT22;64127;51.488;5.462;2023-10-31T01:34:26;11.60;99.90
75430;DHT22;64127;51.488;5.462;2023-10-31T01:36:58;11.60;99.90
75430;DHT22;64127;51.488;5.462;2023-10-31T01:39:30;11.70;99.90
75430;DHT22;64127;51.488;5.462;2023-10-31T01:42:02;11.70;99.90
75430;DHT22;64127;51.488;5.462;2023-10-31T01:44:34;11.60;99.90
75430;DHT22;64127;51.488;5.462;2023-10-31T01:47:06;11.70;99.90
75430;DHT22;64127;51.488;5.462;2023-10-31T01:49:39;11.60;99.90
75430;DHT22;64127;51.488;5.462;2023-10-31T01:52:11;11.70;99.90
75430;DHT22;64127;51.488;5.462;2023-10-31T01:54:44;11.60;99.90
75430;DHT22;64127;51.488;5.462;2023-10-31T01:57:18;11.70;99.90
75430;DHT22;64127;51.488;5.462;2023-10-31T01:59:52;11.60;99.90
75430;DHT22;64127;51.488;5.462;2023-10-31T02:02:25;11.70;99.90
75430;DHT22;64127;51.488;5.462;2023-10-31T02:04:59;11.70;99.90
75430;DHT22;64127;51.488;5.462;2023-10-31T02:07:32;11.70;99.90
75430;DHT22;64127;51.488;5.462;2023-10-31T02:10:04;11.70;99.90
75430;DHT22;64127;51.488;5.462;2023-10-31T02:12:37;11.70;99.90
75430;DHT22;64127;51.488;5.462;2023-10-31T02:15:09;11.70;99.90
75430;DHT22;64127;51.488;5.462;2023-10-31T02:17:41;11.70;99.90
75430;DHT22;64127;51.488;5.462;2023-10-31T02:20:13;11.70;99.90
75430;DHT22;64127;51.488;5.462;2023-10-31T02:22:45;11.70;99.90
75430;DHT22;64127;51.488;5.462;2023-10-31T02:25:17;11.70;99.90
75430;DHT22;64127;51.488;5.462;2023-10-31T02:27:50;11.70;99.90
75430;DHT22;64127;51.488;5.462;2023-10-31T02:30:22;11.70;99.90
75430;DHT22;64127;51.488;5.462;2023-10-31T02:32:54;11.70;99.90
75430;DHT22;64127;51.488;5.462;2023-10-31T02:35:27;11.70;99.90
75430;DHT22;64127;51.488;5.462;2023-10-31T02:37:58;11.70;99.90
75430;DHT22;64127;51.488;5.462;2023-10-31T02:40:30;11.70;99.90
75430;DHT22;64127;51.488;5.462;2023-10-31T02:43:03;11.70;99.90
75430;DHT22;64127;51.488;5.462;2023-10-31T02:45:35;11.70;99.90
75430;DHT22;64127;51.488;5.462;2023-10-31T02:48:07;11.70;99.90
75430;DHT22;64127;51.488;5.462;2023-10-31T02:50:38;11.70;99.90
75430;DHT22;64127;51.488;5.462;2023-10-31T02:53:11;11.70;99.90
75430;DHT22;64127;51.488;5.462;2023-10-31T02:55:43;11.70;99.90
75430;DHT22;64127;51.488;5.462;2023-10-31T02:58:16;11.70;99.90
75430;DHT22;64127;51.488;5.462;2023-10-31T03:00:48;11.70;99.90
75430;DHT22;64127;51.488;5.462;2023-10-31T03:03:20;11.70;99.90
75430;DHT22;64127;51.488;5.462;2023-10-31T03:05:53;11.70;99.90
75430;DHT22;64127;51.488;5.462;2023-10-31T03:08:24;11.70;99.90
75430;DHT22;64127;51.488;5.462;2023-10-31T03:10:57;11.70;99.90
75430;DHT22;64127;51.488;5.462;2023-10-31T03:13:30;11.60;99.90
75430;DHT22;64127;51.488;5.462;2023-10-31T03:16:02;11.70;99.90
75430;DHT22;64127;51.488;5.462;2023-10-31T03:18:35;11.70;99.90
75430;DHT22;64127;51.488;5.462;2023-10-31T03:21:07;11.70;99.90
75430;DHT22;64127;51.488;5.462;2023-10-31T03:23:39;11.70;99.90
75430;DHT22;64127;51.488;5.462;2023-10-31T03:26:12;11.70;99.90
75430;DHT22;64127;51.488;5.462;2023-10-31T03:28:44;11.70;99.90
75430;DHT22;64127;51.488;5.462;2023-10-31T03:31:17;11.70;99.90
75430;DHT22;64127;51.488;5.462;2023-10-31T03:33:49;11.70;99.90
75430;DHT22;64127;51.488;5.462;2023-10-31T03:36:21;11.70;99.90
75430;DHT22;64127;51.488;5.462;2023-10-31T03:38:53;11.70;99.90
75430;DHT22;64127;51.488;5.462;2023-10-31T03:41:25;11.70;99.90
75430;DHT22;64127;51.488;5.462;2023-10-31T03:43:57;11.70;99.90
75430;DHT22;64127;51.488;5.462;2023-10-31T03:46:29;11.70;99.90
75430;DHT22;64127;51.488;5.462;2023-10-31T03:49:01;11.70;99.90
75430;DHT22;64127;51.488;5.462;2023-10-31T03:51:33;11.70;99.90
75430;DHT22;64127;51.488;5.462;2023-10-31T03:54:06;11.70;99.90
75430;DHT22;64127;51.488;5.462;2023-10-31T03:56:43;11.70;99.90
75430;DHT22;64127;51.488;5.462;2023-10-31T03:59:15;11.70;99.90
75430;DHT22;64127;51.488;5.462;2023-10-31T04:01:47;11.70;99.90
75430;DHT22;64127;51.488;5.462;2023-10-31T04:04:19;11.70;99.90
75430;DHT22;64127;51.488;5.462;2023-10-31T04:06:51;11.60;99.90
75430;DHT22;64127;51.488;5.462;2023-10-31T04:09:23;11.70;99.90
75430;DHT22;64127;51.488;5.462;2023-10-31T04:11:55;11.70;99.90
75430;DHT22;64127;51.488;5.462;2023-10-31T04:14:27;11.70;99.90
75430;DHT22;64127;51.488;5.462;2023-10-31T04:16:59;11.70;99.90
75430;DHT22;64127;51.488;5.462;2023-10-31T04:19:31;11.70;99.90
75430;DHT22;64127;51.488;5.462;2023-10-31T04:22:03;11.70;99.90
75430;DHT22;64127;51.488;5.462;2023-10-31T04:24:35;11.70;99.90
75430;DHT22;64127;51.488;5.462;2023-10-31T04:27:07;11.70;99.90
75430;DHT22;64127;51.488;5.462;2023-10-31T04:29:40;11.70;99.90
75430;DHT22;64127;51.488;5.462;2023-10-31T04:32:12;11.60;99.90
75430;DHT22;64127;51.488;5.462;2023-10-31T04:34:44;11.60;99.90
75430;DHT22;64127;51.488;5.462;2023-10-31T04:37:16;11.60;99.90
75430;DHT22;64127;51.488;5.462;2023-10-31T04:39:48;11.60;99.90
75430;DHT22;64127;51.488;5.462;2023-10-31T04:42:20;11.60;99.90
75430;DHT22;64127;51.488;5.462;2023-10-31T04:44:52;11.60;99.90
75430;DHT22;64127;51.488;5.462;2023-10-31T04:47:24;11.60;99.90
75430;DHT22;64127;51.488;5.462;2023-10-31T04:49:56;11.60;99.90
75430;DHT22;64127;51.488;5.462;2023-10-31T04:52:28;11.70;99.90
75430;DHT22;64127;51.488;5.462;2023-10-31T04:55:00;11.60;99.90
75430;DHT22;64127;51.488;5.462;2023-10-31T04:57:32;11.60;99.90
75430;DHT22;64127;51.488;5.462;2023-10-31T05:00:05;11.60;99.90
75430;DHT22;64127;51.488;5.462;2023-10-31T05:02:38;11.60;99.90
75430;DHT22;64127;51.488;5.462;2023-10-31T05:05:11;11.60;99.90
75430;DHT22;64127;51.488;5.462;2023-10-31T05:07:44;11.60;99.90
75430;DHT22;64127;51.488;5.462;2023-10-31T05:10:16;11.60;99.90
75430;DHT22;64127;51.488;5.462;2023-10-31T05:12:48;11.60;99.90
75430;DHT22;64127;51.488;5.462;2023-10-31T05:15:20;11.50;99.90
75430;DHT22;64127;51.488;5.462;2023-10-31T05:17:52;11.60;99.90
75430;DHT22;64127;51.488;5.462;2023-10-31T05:20:24;11.60;99.90
75430;DHT22;64127;51.488;5.462;2023-10-31T05:22:56;11.50;99.90
75430;DHT22;64127;51.488;5.462;2023-10-31T05:25:28;11.50;99.90
75430;DHT22;64127;51.488;5.462;2023-10-31T05:28:00;11.50;99.90
75430;DHT22;64127;51.488;5.462;2023-10-31T05:30:32;11.50;99.90
75430;DHT22;64127;51.488;5.462;2023-10-31T05:33:04;11.50;99.90
75430;DHT22;64127;51.488;5.462;2023-10-31T05:35:37;11.50;99.90
75430;DHT22;64127;51.488;5.462;2023-10-31T05:38:09;11.50;99.90
75430;DHT22;64127;51.488;5.462;2023-10-31T05:40:41;11.50;99.90
75430;DHT22;64127;51.488;5.462;2023-10-31T05:43:13;11.50;99.90
75430;DHT22;64127;51.488;5.462;2023-10-31T05:45:45;11.50;99.90
75430;DHT22;64127;51.488;5.462;2023-10-31T05:48:17;11.50;99.90
75430;DHT22;64127;51.488;5.462;2023-10-31T05:50:49;11.50;99.90
75430;DHT22;64127;51.488;5.462;2023-10-31T05:53:21;11.40;99.90
75430;DHT22;64127;51.488;5.462;2023-10-31T05:55:53;11.40;99.90
75430;DHT22;64127;51.488;5.462;2023-10-31T05:58:25;11.40;99.90
75430;DHT22;64127;51.488;5.462;2023-10-31T06:00:57;11.40;99.90
75430;DHT22;64127;51.488;5.462;2023-10-31T06:03:29;11.40;99.90
75430;DHT22;64127;51.488;5.462;2023-10-31T06:06:01;11.40;99.90
75430;DHT22;64127;51.488;5.462;2023-10-31T06:08:33;11.40;99.90
75430;DHT22;64127;51.488;5.462;2023-10-31T06:11:06;11.40;99.90
75430;DHT22;64127;51.488;5.462;2023-10-31T06:13:39;11.40;99.90
75430;DHT22;64127;51.488;5.462;2023-10-31T06:16:11;11.30;99.90
75430;DHT22;64127;51.488;5.462;2023-10-31T06:18:43;11.30;99.90
75430;DHT22;64127;51.488;5.462;2023-10-31T06:21:15;11.30;99.90
75430;DHT22;64127;51.488;5.462;2023-10-31T06:23:47;11.30;99.90
75430;DHT22;64127;51.488;5.462;2023-10-31T06:26:19;11.30;99.90
75430;DHT22;64127;51.488;5.462;2023-10-31T06:28:51;11.30;99.90
75430;DHT22;64127;51.488;5.462;2023-10-31T06:31:43;11.30;99.90
75430;DHT22;64127;51.488;5.462;2023-10-31T06:34:15;11.30;99.90
75430;DHT22;64127;51.488;5.462;2023-10-31T06:36:47;11.30;99.90
75430;DHT22;64127;51.488;5.462;2023-10-31T06:39:19;11.20;99.90
75430;DHT22;64127;51.488;5.462;2023-10-31T06:41:54;11.20;99.90
75430;DHT22;64127;51.488;5.462;2023-10-31T06:44:27;11.20;99.90
75430;DHT22;64127;51.488;5.462;2023-10-31T06:46:59;11.20;99.90
75430;DHT22;64127;51.488;5.462;2023-10-31T06:49:31;11.20;99.90
75430;DHT22;64127;51.488;5.462;2023-10-31T06:52:04;11.20;99.90
75430;DHT22;64127;51.488;5.462;2023-10-31T06:54:36;11.20;99.90
75430;DHT22;64127;51.488;5.462;2023-10-31T06:57:08;11.20;99.90
75430;DHT22;64127;51.488;5.462;2023-10-31T06:59:40;11.20;99.90
75430;DHT22;64127;51.488;5.462;2023-10-31T07:02:13;11.20;99.90
75430;DHT22;64127;51.488;5.462;2023-10-31T07:04:45;11.30;99.90
75430;DHT22;64127;51.488;5.462;2023-10-31T07:07:17;11.30;99.90
75430;DHT22;64127;51.488;5.462;2023-10-31T07:09:50;11.40;99.90
75430;DHT22;64127;51.488;5.462;2023-10-31T07:12:22;11.40;99.90
75430;DHT22;64127;51.488;5.462;2023-10-31T07:14:55;11.30;99.90
75430;DHT22;64127;51.488;5.462;2023-10-31T07:17:30;11.40;99.90
75430;DHT22;64127;51.488;5.462;2023-10-31T07:20:02;11.30;99.90
75430;DHT22;64127;51.488;5.462;2023-10-31T07:22:35;11.30;99.90
75430;DHT22;64127;51.488;5.462;2023-10-31T07:25:08;11.30;99.90
75430;DHT22;64127;51.488;5.462;2023-10-31T07:27:40;11.30;99.90
75430;DHT22;64127;51.488;5.462;2023-10-31T07:30:12;11.40;99.90
75430;DHT22;64127;51.488;5.462;2023-10-31T07:32:45;11.40;99.90
75430;DHT22;64127;51.488;5.462;2023-10-31T07:35:17;11.40;99.90
75430;DHT22;64127;51.488;5.462;2023-10-31T07:37:51;11.40;99.90
75430;DHT22;64127;51.488;5.462;2023-10-31T07:40:23;11.40;99.90
75430;DHT22;64127;51.488;5.462;2023-10-31T07:42:55;11.40;99.90
75430;DHT22;64127;51.488;5.462;2023-10-31T07:45:27;11.40;99.90
75430;DHT22;64127;51.488;5.462;2023-10-31T07:47:59;11.40;99.90
75430;DHT22;64127;51.488;5.462;2023-10-31T07:50:31;11.40;99.90
75430;DHT22;64127;51.488;5.462;2023-10-31T07:53:03;11.40;99.90
75430;DHT22;64127;51.488;5.462;2023-10-31T07:55:35;11.40;99.90
75430;DHT22;64127;51.488;5.462;2023-10-31T07:58:07;11.40;99.90
75430;DHT22;64127;51.488;5.462;2023-10-31T08:00:41;11.40;99.90
75430;DHT22;64127;51.488;5.462;2023-10-31T08:03:13;11.40;99.90
75430;DHT22;64127;51.488;5.462;2023-10-31T08:05:45;11.40;99.90
75430;DHT22;64127;51.488;5.462;2023-10-31T08:08:17;11.40;99.90
75430;DHT22;64127;51.488;5.462;2023-10-31T08:10:49;11.40;99.90
75430;DHT22;64127;51.488;5.462;2023-10-31T08:13:21;11.40;99.90
75430;DHT22;64127;51.488;5.462;2023-10-31T08:15:53;11.50;99.90
75430;DHT22;64127;51.488;5.462;2023-10-31T08:18:25;11.50;99.90
75430;DHT22;64127;51.488;5.462;2023-10-31T08:20:57;11.50;99.90
75430;DHT22;64127;51.488;5.462;2023-10-31T08:23:30;11.50;99.90
75430;DHT22;64127;51.488;5.462;2023-10-31T08:26:02;11.50;99.90
75430;DHT22;64127;51.488;5.462;2023-10-31T08:28:34;11.50;99.90
75430;DHT22;64127;51.488;5.462;2023-10-31T08:31:06;11.50;99.90
75430;DHT22;64127;51.488;5.462;2023-10-31T08:33:38;11.50;99.90
75430;DHT22;64127;51.488;5.462;2023-10-31T08:36:10;11.50;99.90
75430;DHT22;64127;51.488;5.462;2023-10-31T08:38:42;11.60;99.90
75430;DHT22;64127;51.488;5.462;2023-10-31T08:41:14;11.60;99.90
75430;DHT22;64127;51.488;5.462;2023-10-31T08:43:51;11.60;99.90
75430;DHT22;64127;51.488;5.462;2023-10-31T08:46:23;11.60;99.90
75430;DHT22;64127;51.488;5.462;2023-10-31T08:48:55;11.60;99.90
75430;DHT22;64127;51.488;5.462;2023-10-31T08:51:27;11.70;99.90
75430;DHT22;64127;51.488;5.462;2023-10-31T08:53:59;11.70;99.90
75430;DHT22;64127;51.488;5.462;2023-10-31T08:56:31;11.70;99.90
75430;DHT22;64127;51.488;5.462;2023-10-31T08:59:03;11.80;99.90
75430;DHT22;64127;51.488;5.462;2023-10-31T09:01:36;11.90;99.90
75430;DHT22;64127;51.488;5.462;2023-10-31T09:04:08;12.00;99.90
75430;DHT22;64127;51.488;5.462;2023-10-31T09:06:40;12.00;99.90
75430;DHT22;64127;51.488;5.462;2023-10-31T09:09:12;12.10;99.90
75430;DHT22;64127;51.488;5.462;2023-10-31T09:11:45;12.10;99.90
75430;DHT22;64127;51.488;5.462;2023-10-31T09:14:17;12.20;99.90
75430;DHT22;64127;51.488;5.462;2023-10-31T09:16:49;12.10;99.90
75430;DHT22;64127;51.488;5.462;2023-10-31T09:19:21;12.10;99.90
75430;DHT22;64127;51.488;5.462;2023-10-31T09:21:53;12.20;99.90
75430;DHT22;64127;51.488;5.462;2023-10-31T09:24:25;12.40;99.90
75430;DHT22;64127;51.488;5.462;2023-10-31T09:26:57;12.40;99.90
75430;DHT22;64127;51.488;5.462;2023-10-31T09:29:29;12.40;99.90
75430;DHT22;64127;51.488;5.462;2023-10-31T09:32:01;12.30;99.90
75430;DHT22;64127;51.488;5.462;2023-10-31T09:34:35;12.30;99.90
75430;DHT22;64127;51.488;5.462;2023-10-31T09:37:07;12.20;99.90
75430;DHT22;64127;51.488;5.462;2023-10-31T09:39:39;12.10;99.90
75430;DHT22;64127;51.488;5.462;2023-10-31T09:42:11;12.10;99.90
75430;DHT22;64127;51.488;5.462;2023-10-31T09:44:43;12.10;99.90
75430;DHT22;64127;51.488;5.462;2023-10-31T09:47:15;12.10;99.90
75430;DHT22;64127;51.488;5.462;2023-10-31T09:49:47;12.10;99.90
75430;DHT22;64127;51.488;5.462;2023-10-31T09:52:19;12.00;99.90
75430;DHT22;64127;51.488;5.462;2023-10-31T09:54:52;12.10;99.90
75430;DHT22;64127;51.488;5.462;2023-10-31T09:57:25;12.10;99.90
75430;DHT22;64127;51.488;5.462;2023-10-31T09:59:58;12.10;99.90
75430;DHT22;64127;51.488;5.462;2023-10-31T10:02:30;12.10;99.90
75430;DHT22;64127;51.488;5.462;2023-10-31T10:05:03;12.10;99.90
75430;DHT22;64127;51.488;5.462;2023-10-31T10:07:36;12.10;99.90
75430;DHT22;64127;51.488;5.462;2023-10-31T10:10:12;12.10;99.90
75430;DHT22;64127;51.488;5.462;2023-10-31T10:12:44;12.10;99.90
75430;DHT22;64127;51.488;5.462;2023-10-31T10:15:18;12.20;99.90
75430;DHT22;64127;51.488;5.462;2023-10-31T10:17:51;12.20;99.90
75430;DHT22;64127;51.488;5.462;2023-10-31T10:20:23;12.20;99.90
75430;DHT22;64127;51.488;5.462;2023-10-31T10:23:03;12.20;99.90
75430;DHT22;64127;51.488;5.462;2023-10-31T10:25:36;12.20;99.90
75430;DHT22;64127;51.488;5.462;2023-10-31T10:28:14;12.30;99.90
75430;DHT22;64127;51.488;5.462;2023-10-31T10:30:47;12.30;99.90
75430;DHT22;64127;51.488;5.462;2023-10-31T10:33:23;12.40;99.90
75430;DHT22;64127;51.488;5.462;2023-10-31T10:35:55;12.40;99.90
75430;DHT22;64127;51.488;5.462;2023-10-31T10:38:29;12.40;99.90
75430;DHT22;64127;51.488;5.462;2023-10-31T10:41:06;12.40;99.90
75430;DHT22;64127;51.488;5.462;2023-10-31T10:43:41;12.40;99.90
75430;DHT22;64127;51.488;5.462;2023-10-31T10:46:15;12.40;99.90
75430;DHT22;64127;51.488;5.462;2023-10-31T10:48:50;12.40;99.90
75430;DHT22;64127;51.488;5.462;2023-10-31T10:51:53;12.40;99.90
75430;DHT22;64127;51.488;5.462;2023-10-31T10:54:52;12.40;99.90
75430;DHT22;64127;51.488;5.462;2023-10-31T10:57:56;12.50;99.90
75430;DHT22;64127;51.488;5.462;2023-10-31T11:00:40;12.50;99.90
75430;DHT22;64127;51.488;5.462;2023-10-31T11:03:16;12.60;99.90
75430;DHT22;64127;51.488;5.462;2023-10-31T11:05:51;12.60;99.90
75430;DHT22;64127;51.488;5.462;2023-10-31T11:08:23;12.60;99.90
75430;DHT22;64127;51.488;5.462;2023-10-31T11:10:57;12.60;99.90
75430;DHT22;64127;51.488;5.462;2023-10-31T11:13:30;12.60;99.90
75430;DHT22;64127;51.488;5.462;2023-10-31T11:16:09;12.60;99.90
75430;DHT22;64127;51.488;5.462;2023-10-31T11:18:48;12.60;99.90
75430;DHT22;64127;51.488;5.462;2023-10-31T11:21:22;12.50;99.90
75430;DHT22;64127;51.488;5.462;2023-10-31T11:23:59;12.50;99.90
75430;DHT22;64127;51.488;5.462;2023-10-31T11:26:32;12.60;99.90
75430;DHT22;64127;51.488;5.462;2023-10-31T11:29:07;12.60;99.90
75430;DHT22;64127;51.488;5.462;2023-10-31T11:31:42;12.60;99.90
75430;DHT22;64127;51.488;5.462;2023-10-31T11:34:16;12.70;99.90
75430;DHT22;64127;51.488;5.462;2023-10-31T11:36:51;12.70;99.90
75430;DHT22;64127;51.488;5.462;2023-10-31T11:39:23;12.70;99.90
75430;DHT22;64127;51.488;5.462;2023-10-31T11:41:59;12.60;99.90
75430;DHT22;64127;51.488;5.462;2023-10-31T11:44:31;12.60;99.90
75430;DHT22;64127;51.488;5.462;2023-10-31T11:47:04;12.70;99.90
75430;DHT22;64127;51.488;5.462;2023-10-31T11:49:46;12.70;99.90
75430;DHT22;64127;51.488;5.462;2023-10-31T11:52:19;12.70;99.90
75430;DHT22;64127;51.488;5.462;2023-10-31T11:54:51;12.80;99.90
75430;DHT22;64127;51.488;5.462;2023-10-31T11:57:27;12.90;99.90
75430;DHT22;64127;51.488;5.462;2023-10-31T12:00:03;13.00;99.90
75430;DHT22;64127;51.488;5.462;2023-10-31T12:02:36;13.10;99.90
75430;DHT22;64127;51.488;5.462;2023-10-31T12:05:10;13.20;99.90
75430;DHT22;64127;51.488;5.462;2023-10-31T12:07:46;13.40;99.90
75430;DHT22;64127;51.488;5.462;2023-10-31T12:10:26;13.50;99.90
75430;DHT22;64127;51.488;5.462;2023-10-31T12:13:01;13.50;99.90
75430;DHT22;64127;51.488;5.462;2023-10-31T12:15:33;13.50;99.90
75430;DHT22;64127;51.488;5.462;2023-10-31T12:18:05;13.50;99.90
75430;DHT22;64127;51.488;5.462;2023-10-31T12:20:50;13.50;99.90
75430;DHT22;64127;51.488;5.462;2023-10-31T12:23:23;13.60;99.90
75430;DHT22;64127;51.488;5.462;2023-10-31T12:25:55;13.70;99.90
75430;DHT22;64127;51.488;5.462;2023-10-31T12:28:28;13.80;99.90
75430;DHT22;64127;51.488;5.462;2023-10-31T12:31:02;14.00;99.90
75430;DHT22;64127;51.488;5.462;2023-10-31T12:33:34;14.20;99.90
75430;DHT22;64127;51.488;5.462;2023-10-31T12:36:07;14.30;99.90
75430;DHT22;64127;51.488;5.462;2023-10-31T12:38:40;14.40;99.90
75430;DHT22;64127;51.488;5.462;2023-10-31T12:41:12;14.40;99.90
75430;DHT22;64127;51.488;5.462;2023-10-31T12:43:45;14.40;99.90
75430;DHT22;64127;51.488;5.462;2023-10-31T12:46:25;14.40;99.90
75430;DHT22;64127;51.488;5.462;2023-10-31T12:49:01;14.30;99.90
75430;DHT22;64127;51.488;5.462;2023-10-31T12:51:33;14.40;99.90
75430;DHT22;64127;51.488;5.462;2023-10-31T12:54:05;14.60;99.90
75430;DHT22;64127;51.488;5.462;2023-10-31T12:56:41;14.90;99.90
75430;DHT22;64127;51.488;5.462;2023-10-31T12:59:14;15.10;99.90
75430;DHT22;64127;51.488;5.462;2023-10-31T13:01:46;15.00;99.90
75430;DHT22;64127;51.488;5.462;2023-10-31T13:04:29;15.10;99.90
75430;DHT22;64127;51.488;5.462;2023-10-31T13:07:04;15.40;99.90
75430;DHT22;64127;51.488;5.462;2023-10-31T13:09:38;15.60;99.90
75430;DHT22;64127;51.488;5.462;2023-10-31T13:12:11;15.60;99.90
75430;DHT22;64127;51.488;5.462;2023-10-31T13:14:43;15.30;99.90
75430;DHT22;64127;51.488;5.462;2023-10-31T13:17:15;15.10;99.90
75430;DHT22;64127;51.488;5.462;2023-10-31T13:19:47;14.80;99.90
75430;DHT22;64127;51.488;5.462;2023-10-31T13:22:19;14.70;99.90
75430;DHT22;64127;51.488;5.462;2023-10-31T13:24:51;14.50;99.90
75430;DHT22;64127;51.488;5.462;2023-10-31T13:27:23;14.40;99.90
75430;DHT22;64127;51.488;5.462;2023-10-31T13:29:55;14.20;99.90
75430;DHT22;64127;51.488;5.462;2023-10-31T13:32:27;14.20;99.90
75430;DHT22;64127;51.488;5.462;2023-10-31T13:34:59;14.20;99.90
75430;DHT22;64127;51.488;5.462;2023-10-31T13:37:31;14.20;99.90
75430;DHT22;64127;51.488;5.462;2023-10-31T13:40:04;14.10;99.90
75430;DHT22;64127;51.488;5.462;2023-10-31T13:42:36;14.10;99.90
75430;DHT22;64127;51.488;5.462;2023-10-31T13:45:09;14.00;99.90
75430;DHT22;64127;51.488;5.462;2023-10-31T13:47:41;14.00;99.90
75430;DHT22;64127;51.488;5.462;2023-10-31T13:50:13;13.90;99.90
75430;DHT22;64127;51.488;5.462;2023-10-31T13:52:45;13.90;99.90
75430;DHT22;64127;51.488;5.462;2023-10-31T13:55:17;13.90;99.90
75430;DHT22;64127;51.488;5.462;2023-10-31T13:57:49;13.90;99.90
75430;DHT22;64127;51.488;5.462;2023-10-31T14:00:21;13.80;99.90
75430;DHT22;64127;51.488;5.462;2023-10-31T14:02:53;13.70;99.90
75430;DHT22;64127;51.488;5.462;2023-10-31T14:05:25;13.70;99.90
75430;DHT22;64127;51.488;5.462;2023-10-31T14:07:58;13.60;99.90
75430;DHT22;64127;51.488;5.462;2023-10-31T14:10:31;13.60;99.90
75430;DHT22;64127;51.488;5.462;2023-10-31T14:13:03;13.50;99.90
75430;DHT22;64127;51.488;5.462;2023-10-31T14:15:35;13.50;99.90
75430;DHT22;64127;51.488;5.462;2023-10-31T14:18:07;13.40;99.90
75430;DHT22;64127;51.488;5.462;2023-10-31T14:20:39;13.40;99.90
75430;DHT22;64127;51.488;5.462;2023-10-31T14:23:12;13.50;99.90
75430;DHT22;64127;51.488;5.462;2023-10-31T14:25:44;13.40;99.90
75430;DHT22;64127;51.488;5.462;2023-10-31T14:28:16;13.50;99.90
75430;DHT22;64127;51.488;5.462;2023-10-31T14:30:48;13.40;99.90
75430;DHT22;64127;51.488;5.462;2023-10-31T14:33:20;13.40;99.90
75430;DHT22;64127;51.488;5.462;2023-10-31T14:35:52;13.40;99.90
75430;DHT22;64127;51.488;5.462;2023-10-31T14:38:24;13.40;99.90
75430;DHT22;64127;51.488;5.462;2023-10-31T14:40:57;13.30;99.90
75430;DHT22;64127;51.488;5.462;2023-10-31T14:43:29;13.30;99.90
75430;DHT22;64127;51.488;5.462;2023-10-31T14:46:02;13.30;99.90
75430;DHT22;64127;51.488;5.462;2023-10-31T14:48:34;13.20;99.90
75430;DHT22;64127;51.488;5.462;2023-10-31T14:51:06;13.20;99.90
75430;DHT22;64127;51.488;5.462;2023-10-31T14:53:39;13.20;99.90
75430;DHT22;64127;51.488;5.462;2023-10-31T14:56:11;13.10;99.90
75430;DHT22;64127;51.488;5.462;2023-10-31T14:58:43;13.10;99.90
75430;DHT22;64127;51.488;5.462;2023-10-31T15:01:15;13.00;99.90
75430;DHT22;64127;51.488;5.462;2023-10-31T15:03:48;13.00;99.90
75430;DHT22;64127;51.488;5.462;2023-10-31T15:06:21;13.00;99.90
75430;DHT22;64127;51.488;5.462;2023-10-31T15:08:54;12.90;99.90
75430;DHT22;64127;51.488;5.462;2023-10-31T15:11:26;12.90;99.90
75430;DHT22;64127;51.488;5.462;2023-10-31T15:13:58;12.90;99.90
75430;DHT22;64127;51.488;5.462;2023-10-31T15:16:30;12.80;99.90
75430;DHT22;64127;51.488;5.462;2023-10-31T15:19:02;12.80;99.90
75430;DHT22;64127;51.488;5.462;2023-10-31T15:21:35;12.90;99.90
75430;DHT22;64127;51.488;5.462;2023-10-31T15:24:07;13.00;99.90
75430;DHT22;64127;51.488;5.462;2023-10-31T15:26:41;13.00;99.90
75430;DHT22;64127;51.488;5.462;2023-10-31T15:29:14;13.00;99.90
75430;DHT22;64127;51.488;5.462;2023-10-31T15:31:46;13.00;99.90
75430;DHT22;64127;51.488;5.462;2023-10-31T15:34:19;13.00;99.90
75430;DHT22;64127;51.488;5.462;2023-10-31T15:36:52;13.00;99.90
75430;DHT22;64127;51.488;5.462;2023-10-31T15:39:24;12.90;99.90
75430;DHT22;64127;51.488;5.462;2023-10-31T15:41:56;12.90;99.90
75430;DHT22;64127;51.488;5.462;2023-10-31T15:44:28;12.90;99.90
75430;DHT22;64127;51.488;5.462;2023-10-31T15:47:00;12.90;99.90
75430;DHT22;64127;51.488;5.462;2023-10-31T15:49:32;12.80;99.90
75430;DHT22;64127;51.488;5.462;2023-10-31T15:52:04;12.80;99.90
75430;DHT22;64127;51.488;5.462;2023-10-31T15:54:37;12.80;99.90
75430;DHT22;64127;51.488;5.462;2023-10-31T15:57:09;12.80;99.90
75430;DHT22;64127;51.488;5.462;2023-10-31T15:59:41;12.80;99.90
75430;DHT22;64127;51.488;5.462;2023-10-31T16:02:13;12.80;99.90
75430;DHT22;64127;51.488;5.462;2023-10-31T16:04:47;12.80;99.90
75430;DHT22;64127;51.488;5.462;2023-10-31T16:07:20;12.80;99.90